Garrison, New York
Current Conditions -  °F | °C
As of 6:45 PM on Saturday 22 Nov 2014 (Local Time) from KSWF Reporting Station
Overcast Overcast  
Wind Chill: 34°   Ceiling: 3500
Heat Index: 41°   Visibility: 10mi
Dew Point: 16°   Wind: 12mph
Humidity: 36%   Direction: 240°WSW
Pressure: 30.2"   Gusts: NA
Location:  41.38°N, 73.95°W
Report Text: KSWF 222345Z 24010KT 10SM OVC035 05/M09 A3020
Loading
Personal Weather Stations






























Interactive Weather Map New forecast layout! Learn more

10-Day Weather Forecast

Advertisements
Track Severe Weather on mobile